Time;durP1;ratioP1;P1;durP2;ratioP2;P2;SDS_P1;SDS_P2;PMS_P1;PMS_P2;Temp;Humidity;BMP_temperature;BMP_pressure;BME280_temperature;BME280_humidity;BME280_pressure;Samples;Min_cycle;Max_cycle;Signal;HPM_P1;HPM_P2
2022/08/06 00:00:36;;;;;;;2.40;1.70;;;25.30;53.00;;;;;;7381247;19;20412;-45
2022/08/06 00:03:06;;;;;;;2.37;1.57;;;25.50;53.10;;;;;;7382614;19;20388;-46
2022/08/06 00:05:35;;;;;;;2.60;2.40;;;25.50;52.50;;;;;;7382262;19;20372;-46
2022/08/06 00:08:07;;;;;;;2.13;1.47;;;25.40;53.00;;;;;;7382719;19;21009;-46
2022/08/06 00:10:37;;;;;;;1.97;1.77;;;25.50;52.90;;;;;;7382205;19;20387;-46
2022/08/06 00:13:06;;;;;;;4.40;1.70;;;25.40;52.70;;;;;;7384032;19;20448;-46
2022/08/06 00:15:40;;;;;;;2.97;2.10;;;25.40;52.50;;;;;;7385661;19;20718;-46
2022/08/06 00:18:10;;;;;;;2.33;2.10;;;25.30;52.60;;;;;;7382503;19;20372;-46
2022/08/06 00:20:42;;;;;;;4.10;1.80;;;25.30;52.80;;;;;;7382245;19;20372;-46
2022/08/06 00:23:13;;;;;;;2.50;1.90;;;25.30;52.90;;;;;;7386919;19;20408;-46
2022/08/06 00:25:42;;;;;;;1.83;1.70;;;25.30;52.50;;;;;;7389369;19;20410;-46
2022/08/06 00:28:11;;;;;;;3.23;1.80;;;25.30;52.40;;;;;;7391315;19;20762;-46
2022/08/06 00:30:46;;;;;;;1.80;1.70;;;25.10;52.50;;;;;;7390846;19;20772;-46
2022/08/06 00:33:16;;;;;;;2.27;1.70;;;25.10;52.20;;;;;;7391379;19;20384;-46
2022/08/06 00:35:48;;;;;;;2.80;1.80;;;24.90;53.00;;;;;;7391532;19;20740;-46
2022/08/06 00:38:17;;;;;;;3.53;1.60;;;24.80;52.70;;;;;;7388413;19;20397;-46
2022/08/06 00:40:47;;;;;;;2.00;1.80;;;24.90;52.40;;;;;;7389874;19;20451;-45
2022/08/06 00:43:17;;;;;;;3.03;1.53;;;24.80;52.00;;;;;;7388515;19;20731;-46
2022/08/06 00:45:49;;;;;;;1.77;1.60;;;24.70;52.50;;;;;;7389921;19;20360;-46
2022/08/06 00:48:19;;;;;;;2.13;1.50;;;24.50;53.00;;;;;;7390016;19;20379;-46
2022/08/06 00:50:49;;;;;;;2.50;1.67;;;24.60;52.60;;;;;;7391514;19;20471;-46
2022/08/06 00:53:18;;;;;;;2.57;1.40;;;24.60;52.30;;;;;;7390654;19;21024;-46
2022/08/06 00:55:48;;;;;;;2.00;1.43;;;24.60;52.60;;;;;;7389372;19;20375;-46
2022/08/06 00:58:17;;;;;;;3.90;1.87;;;24.80;51.70;;;;;;7387795;19;20385;-46
2022/08/06 01:00:52;;;;;;;6.30;1.40;;;24.80;52.00;;;;;;7386056;19;20439;-46
2022/08/06 01:03:21;;;;;;;4.33;1.90;;;24.80;52.10;;;;;;7388161;19;20384;-46
2022/08/06 01:05:51;;;;;;;1.53;1.20;;;25.00;52.20;;;;;;7387774;19;20382;-46
2022/08/06 01:08:23;;;;;;;2.60;1.53;;;24.80;50.90;;;;;;7388642;19;20720;-46
2022/08/06 01:10:52;;;;;;;3.10;1.90;;;24.60;51.20;;;;;;7388448;19;20376;-46
2022/08/06 01:13:22;;;;;;;3.13;1.57;;;24.60;51.20;;;;;;7389550;19;20383;-46
2022/08/06 01:16:05;;;;;;;2.70;1.50;;;24.40;51.20;;;;;;7389696;19;20823;-46
2022/08/06 01:18:42;;;;;;;1.30;1.07;;;24.50;51.30;;;;;;7386617;19;20380;-46
2022/08/06 01:21:31;;;;;;;2.07;1.80;;;24.50;51.10;;;;;;7388076;19;20921;-46
2022/08/06 01:24:33;;;;;;;1.80;1.37;;;24.50;50.60;;;;;;7389947;19;20372;-45
2022/08/06 01:27:32;;;;;;;2.17;1.43;;;24.50;51.70;;;;;;7387831;19;20391;-45
2022/08/06 01:30:10;;;;;;;2.30;1.60;;;24.40;50.90;;;;;;7389336;19;20372;-45
2022/08/06 01:32:46;;;;;;;1.63;1.40;;;24.40;50.40;;;;;;7389656;19;20917;-45
2022/08/06 01:35:20;;;;;;;1.40;1.30;;;24.40;50.00;;;;;;7385194;19;20391;-46
2022/08/06 01:37:59;;;;;;;1.77;1.47;;;24.40;50.00;;;;;;7387354;19;20706;-46
2022/08/06 01:40:34;;;;;;;2.63;1.37;;;24.20;50.20;;;;;;7387090;19;20985;-45
2022/08/06 01:43:10;;;;;;;2.10;1.50;;;24.10;50.40;;;;;;7387894;19;20420;-45
2022/08/06 01:45:41;;;;;;;2.27;1.30;;;24.10;50.80;;;;;;7387272;19;20387;-45
2022/08/06 01:48:16;;;;;;;2.30;1.57;;;24.10;50.70;;;;;;7386846;19;20461;-45
2022/08/06 01:50:48;;;;;;;2.23;1.60;;;24.10;50.70;;;;;;7387320;19;20391;-46
2022/08/06 01:53:22;;;;;;;2.07;1.27;;;24.10;50.60;;;;;;7386952;19;20961;-46
2022/08/06 01:55:55;;;;;;;2.17;1.20;;;24.20;50.40;;;;;;7385799;19;20503;-46
2022/08/06 01:58:31;;;;;;;1.77;1.20;;;24.20;50.00;;;;;;7384851;19;20384;-46
2022/08/06 02:01:03;;;;;;;1.10;1.00;;;24.20;49.90;;;;;;7384152;19;20464;-46
2022/08/06 02:03:38;;;;;;;2.20;1.07;;;24.20;49.90;;;;;;7384123;19;20762;-46
2022/08/06 02:06:09;;;;;;;1.60;1.13;;;24.10;50.00;;;;;;7385602;19;20380;-45
2022/08/06 02:08:40;;;;;;;1.40;1.10;;;24.00;50.30;;;;;;7384420;19;20384;-46
2022/08/06 02:11:12;;;;;;;2.13;1.03;;;24.10;50.20;;;;;;7386203;19;20784;-46
2022/08/06 02:13:46;;;;;;;1.13;1.13;;;24.10;50.30;;;;;;7386568;19;20387;-46
2022/08/06 02:16:17;;;;;;;1.83;1.20;;;23.90;50.30;;;;;;7385221;19;20376;-46
2022/08/06 02:18:51;;;;;;;1.70;1.10;;;23.70;50.90;;;;;;7384637;19;20388;-46
2022/08/06 02:21:26;;;;;;;2.13;1.57;;;23.60;50.80;;;;;;7386695;19;20375;-45
2022/08/06 02:23:56;;;;;;;1.53;1.20;;;23.70;51.10;;;;;;7386887;19;20961;-45
2022/08/06 02:26:29;;;;;;;2.30;1.40;;;23.70;50.80;;;;;;7384745;19;20428;-47
2022/08/06 02:29:02;;;;;;;2.57;1.13;;;23.70;51.00;;;;;;7386828;19;20380;-45
2022/08/06 02:31:32;;;;;;;1.37;1.10;;;23.60;51.00;;;;;;7383604;19;20361;-45
2022/08/06 02:34:02;;;;;;;1.27;1.17;;;23.40;51.30;;;;;;7381724;19;20384;-45
2022/08/06 02:36:38;;;;;;;1.73;1.10;;;23.50;51.30;;;;;;7383076;19;20470;-45
2022/08/06 02:39:11;;;;;;;2.20;1.43;;;23.50;51.10;;;;;;7385146;19;20378;-45
2022/08/06 02:41:44;;;;;;;3.07;1.10;;;23.50;50.90;;;;;;7385109;19;20716;-46
2022/08/06 02:44:23;;;;;;;2.10;1.60;;;23.50;51.10;;;;;;7385114;19;20380;-45
2022/08/06 02:47:01;;;;;;;1.47;1.37;;;23.60;51.00;;;;;;7383672;19;20384;-46
2022/08/06 02:49:32;;;;;;;2.53;1.40;;;23.40;51.10;;;;;;7384797;19;20948;-46
2022/08/06 02:52:07;;;;;;;1.60;1.13;;;23.20;51.60;;;;;;7385532;19;20380;-46
2022/08/06 02:54:41;;;;;;;2.60;1.23;;;23.30;51.80;;;;;;7382844;19;20367;-46
2022/08/06 02:57:24;;;;;;;1.23;1.10;;;23.30;51.80;;;;;;7383534;19;20412;-46
2022/08/06 03:00:01;;;;;;;1.77;1.47;;;23.40;51.70;;;;;;7382961;19;20431;-46
2022/08/06 03:02:35;;;;;;;1.47;1.37;;;23.50;51.50;;;;;;7384744;19;20379;-46
2022/08/06 03:05:07;;;;;;;2.07;1.40;;;23.60;51.70;;;;;;7382795;19;20368;-46
2022/08/06 03:07:41;;;;;;;1.77;1.40;;;23.70;51.20;;;;;;7385128;19;21199;-46
2022/08/06 03:10:12;;;;;;;4.30;1.67;;;23.50;51.40;;;;;;7385312;19;20384;-46
2022/08/06 03:12:42;;;;;;;2.57;1.20;;;23.50;51.60;;;;;;7383671;19;20375;-46
2022/08/06 03:15:16;;;;;;;2.60;1.30;;;23.30;51.50;;;;;;7385828;19;20380;-46
2022/08/06 03:17:46;;;;;;;1.93;1.70;;;23.30;52.10;;;;;;7385217;19;20949;-46
2022/08/06 03:20:20;;;;;;;2.33;1.40;;;23.30;52.40;;;;;;7380564;19;20777;-46
2022/08/06 03:22:54;;;;;;;1.70;1.30;;;23.30;52.50;;;;;;7385303;19;20386;-45
2022/08/06 03:25:24;;;;;;;1.90;1.50;;;23.20;52.50;;;;;;7383719;19;20393;-46
2022/08/06 03:27:55;;;;;;;2.27;1.37;;;23.40;52.00;;;;;;7384044;19;20377;-46
2022/08/06 03:30:28;;;;;;;3.80;1.70;;;23.30;52.00;;;;;;7384431;19;20821;-46
2022/08/06 03:32:59;;;;;;;2.37;1.40;;;23.40;52.00;;;;;;7382473;19;20465;-46
2022/08/06 03:35:28;;;;;;;2.00;1.30;;;23.50;52.10;;;;;;7384959;19;20404;-46
2022/08/06 03:38:00;;;;;;;2.33;1.40;;;23.50;52.20;;;;;;7382472;19;20791;-46
2022/08/06 03:40:30;;;;;;;2.70;1.70;;;23.40;52.10;;;;;;7380918;19;20380;-45
2022/08/06 03:43:02;;;;;;;3.60;1.10;;;23.60;52.10;;;;;;7384357;19;20408;-46
2022/08/06 03:45:40;;;;;;;2.37;1.63;;;23.60;51.90;;;;;;7384085;19;21008;-46
2022/08/06 03:48:14;;;;;;;1.80;1.23;;;23.60;51.90;;;;;;7384617;19;20371;-46
2022/08/06 03:50:47;;;;;;;1.53;1.20;;;23.50;51.80;;;;;;7382482;19;20963;-46
2022/08/06 03:53:21;;;;;;;2.80;1.53;;;23.40;51.80;;;;;;7382258;19;20384;-46
2022/08/06 03:55:54;;;;;;;5.67;1.80;;;23.20;52.40;;;;;;7381425;19;20427;-46
2022/08/06 03:58:25;;;;;;;3.57;1.50;;;23.20;52.70;;;;;;7388322;19;20392;-45
2022/08/06 04:01:01;;;;;;;2.97;1.33;;;23.10;53.00;;;;;;7388516;19;20871;-46
2022/08/06 04:03:35;;;;;;;2.07;1.47;;;23.20;53.00;;;;;;7388244;19;20511;-46
2022/08/06 04:06:09;;;;;;;3.63;1.50;;;23.10;53.20;;;;;;7390902;19;20376;-46
2022/08/06 04:08:42;;;;;;;2.40;1.60;;;23.00;53.20;;;;;;7391952;19;20974;-45
2022/08/06 04:11:14;;;;;;;6.00;1.60;;;23.00;52.90;;;;;;7391164;19;20387;-46
2022/08/06 04:13:46;;;;;;;4.63;1.50;;;22.90;53.50;;;;;;7390454;19;20416;-46
2022/08/06 04:16:19;;;;;;;2.23;1.87;;;23.00;53.30;;;;;;7389003;19;20384;-46
2022/08/06 04:18:51;;;;;;;3.13;2.00;;;22.90;53.60;;;;;;7391031;19;20376;-46
2022/08/06 04:21:24;;;;;;;1.60;1.50;;;23.00;53.40;;;;;;7391109;19;20375;-46
2022/08/06 04:23:57;;;;;;;1.57;1.37;;;23.20;53.30;;;;;;7391199;19;20390;-45
2022/08/06 04:26:30;;;;;;;2.30;1.33;;;23.10;53.40;;;;;;7390572;19;20924;-46
2022/08/06 04:29:01;;;;;;;4.50;1.60;;;23.20;53.30;;;;;;7387177;19;20375;-45
2022/08/06 04:31:35;;;;;;;1.90;1.40;;;23.30;53.20;;;;;;7390553;19;20376;-46
2022/08/06 04:34:05;;;;;;;2.30;1.67;;;23.20;53.00;;;;;;7388851;19;20375;-45
2022/08/06 04:36:35;;;;;;;2.00;1.80;;;23.00;53.50;;;;;;7388523;19;20384;-46
2022/08/06 04:39:05;;;;;;;1.63;1.20;;;23.00;53.50;;;;;;7390099;19;20972;-46
2022/08/06 04:41:35;;;;;;;2.57;1.50;;;22.90;54.20;;;;;;7390212;19;20372;-46
2022/08/06 04:44:05;;;;;;;2.90;1.30;;;22.90;53.70;;;;;;7388627;19;20790;-45
2022/08/06 04:46:37;;;;;;;1.67;1.43;;;22.90;53.90;;;;;;7387524;19;20368;-46
2022/08/06 04:49:07;;;;;;;1.57;1.47;;;23.00;53.80;;;;;;7388214;19;20410;-46
2022/08/06 04:51:37;;;;;;;2.63;1.53;;;23.20;53.70;;;;;;7389717;19;20432;-46
2022/08/06 04:54:08;;;;;;;2.60;1.70;;;23.30;53.80;;;;;;7388571;19;20780;-46
2022/08/06 04:56:38;;;;;;;1.80;1.40;;;23.40;53.40;;;;;;7388741;19;20372;-46
2022/08/06 04:59:11;;;;;;;1.73;1.53;;;23.40;53.40;;;;;;7387010;19;20460;-46
2022/08/06 05:01:43;;;;;;;4.47;1.57;;;23.20;53.30;;;;;;7385390;19;20483;-46
2022/08/06 05:04:13;;;;;;;1.90;1.63;;;23.10;53.70;;;;;;7385303;19;20459;-46
2022/08/06 05:06:48;;;;;;;3.10;1.63;;;23.20;54.00;;;;;;7388972;19;20372;-45
2022/08/06 05:09:21;;;;;;;3.50;1.80;;;23.30;53.60;;;;;;7388471;19;20864;-46
2022/08/06 05:11:55;;;;;;;1.73;1.33;;;23.30;53.20;;;;;;7388139;19;20420;-46
2022/08/06 05:14:31;;;;;;;1.87;1.40;;;23.20;53.90;;;;;;7387093;19;20384;-46
2022/08/06 05:17:04;;;;;;;1.93;1.70;;;23.20;53.80;;;;;;7387694;19;20951;-46
2022/08/06 05:19:43;;;;;;;1.63;1.53;;;23.20;53.80;;;;;;7387774;19;21372;-46
2022/08/06 05:22:15;;;;;;;1.70;1.60;;;23.30;53.80;;;;;;7387893;19;20408;-46
2022/08/06 05:24:47;;;;;;;5.33;2.07;;;23.10;54.20;;;;;;7388897;19;20384;-45
2022/08/06 05:27:17;;;;;;;1.90;1.60;;;23.10;54.30;;;;;;7386953;19;20378;-46
2022/08/06 05:29:46;;;;;;;2.00;1.23;;;23.10;54.10;;;;;;7387800;19;20436;-46
2022/08/06 05:32:19;;;;;;;2.90;1.37;;;23.20;54.20;;;;;;7388215;19;20655;-46
2022/08/06 05:34:49;;;;;;;2.93;1.73;;;23.20;54.20;;;;;;7387481;19;20456;-45
2022/08/06 05:37:18;;;;;;;2.97;1.63;;;23.10;54.20;;;;;;7386421;19;20405;-46
2022/08/06 05:39:48;;;;;;;2.97;1.50;;;23.00;54.50;;;;;;7388156;19;20399;-46
2022/08/06 05:42:17;;;;;;;3.53;2.20;;;23.00;54.70;;;;;;7387879;19;20372;-45
2022/08/06 05:44:47;;;;;;;2.90;1.87;;;23.00;54.50;;;;;;7385873;19;20393;-46
2022/08/06 05:47:23;;;;;;;1.87;1.50;;;22.70;55.00;;;;;;7385252;19;20770;-46
2022/08/06 05:49:58;;;;;;;1.80;1.50;;;22.90;55.10;;;;;;7385743;19;20371;-46
2022/08/06 05:52:32;;;;;;;2.27;1.33;;;22.90;55.00;;;;;;7386726;19;20380;-46
2022/08/06 05:55:05;;;;;;;2.40;1.40;;;22.90;54.60;;;;;;7386685;19;20372;-47
2022/08/06 05:57:40;;;;;;;4.40;2.07;;;22.90;55.30;;;;;;7386678;19;20417;-46
2022/08/06 06:00:13;;;;;;;2.30;1.57;;;22.80;55.20;;;;;;7384464;19;20446;-46
2022/08/06 06:02:49;;;;;;;1.83;1.37;;;22.80;55.50;;;;;;7383876;19;20376;-46
2022/08/06 06:05:19;;;;;;;1.70;1.60;;;22.70;55.70;;;;;;7386134;19;20376;-46
2022/08/06 06:07:50;;;;;;;2.23;1.80;;;22.60;55.70;;;;;;7386947;19;20384;-46
2022/08/06 06:10:19;;;;;;;1.93;1.73;;;22.70;56.00;;;;;;7385322;19;20380;-47
2022/08/06 06:12:50;;;;;;;2.67;1.77;;;22.80;55.60;;;;;;7384557;19;20384;-46
2022/08/06 06:15:21;;;;;;;2.00;1.83;;;22.90;55.50;;;;;;7384947;19;20411;-46
2022/08/06 06:18:07;;;;;;;1.40;1.30;;;23.00;55.50;;;;;;7386051;19;20376;-46
2022/08/06 06:20:47;;;;;;;1.47;1.37;;;23.20;55.10;;;;;;7382264;19;20384;-46
2022/08/06 06:23:21;;;;;;;2.27;1.53;;;23.20;54.70;;;;;;7386847;19;20383;-46
2022/08/06 06:26:02;;;;;;;4.40;1.70;;;23.30;55.00;;;;;;7386601;19;20395;-46
2022/08/06 06:28:37;;;;;;;3.30;2.10;;;23.50;54.50;;;;;;7384100;19;20928;-46
2022/08/06 06:31:14;;;;;;;3.20;1.73;;;23.60;54.30;;;;;;7384342;19;20407;-46
2022/08/06 06:33:55;;;;;;;2.00;1.67;;;23.80;54.10;;;;;;7386379;19;20376;-46
2022/08/06 06:36:31;;;;;;;3.27;1.57;;;23.70;53.40;;;;;;7384675;19;20406;-46
2022/08/06 06:39:06;;;;;;;1.97;1.77;;;23.50;53.80;;;;;;7385137;19;20418;-46
2022/08/06 06:41:42;;;;;;;3.03;1.60;;;23.30;54.30;;;;;;7385009;19;20387;-46
2022/08/06 06:44:20;;;;;;;2.87;1.70;;;23.30;54.40;;;;;;7385530;19;20384;-46
2022/08/06 06:46:56;;;;;;;2.43;1.70;;;23.30;54.40;;;;;;7386270;19;20404;-46
2022/08/06 06:49:38;;;;;;;1.97;1.50;;;23.50;54.00;;;;;;7385745;19;21282;-46
2022/08/06 06:52:13;;;;;;;4.67;1.87;;;23.60;54.30;;;;;;7384458;19;20380;-46
2022/08/06 06:54:46;;;;;;;2.17;1.90;;;23.60;54.10;;;;;;7384301;19;20372;-47
2022/08/06 06:57:23;;;;;;;5.43;2.00;;;23.60;53.80;;;;;;7383841;19;20388;-47
2022/08/06 06:59:56;;;;;;;2.20;2.00;;;23.60;53.70;;;;;;7382915;19;20945;-46
2022/08/06 07:02:28;;;;;;;1.87;1.73;;;23.60;54.00;;;;;;7383697;19;20368;-47
2022/08/06 07:05:02;;;;;;;2.87;2.13;;;23.80;53.70;;;;;;7384750;19;20431;-46
2022/08/06 07:07:34;;;;;;;3.03;2.00;;;23.90;53.20;;;;;;7384631;19;20359;-47
2022/08/06 07:10:06;;;;;;;2.50;1.83;;;23.90;53.20;;;;;;7385468;19;20368;-47
2022/08/06 07:12:37;;;;;;;2.10;1.60;;;24.00;53.30;;;;;;7384360;19;20382;-47
2022/08/06 07:15:10;;;;;;;3.23;2.10;;;24.20;53.50;;;;;;7383858;19;20388;-46
2022/08/06 07:17:41;;;;;;;2.60;1.70;;;24.40;53.20;;;;;;7383119;19;20360;-47
2022/08/06 07:20:19;;;;;;;2.70;1.80;;;24.50;53.00;;;;;;7383656;19;20769;-47
2022/08/06 07:22:49;;;;;;;2.40;2.20;;;24.60;52.50;;;;;;7383578;19;20379;-47
2022/08/06 07:25:22;;;;;;;4.90;2.23;;;24.70;52.10;;;;;;7383788;19;20392;-47
2022/08/06 07:27:53;;;;;;;2.20;1.60;;;24.80;51.80;;;;;;7384147;19;20399;-46
2022/08/06 07:30:24;;;;;;;5.97;1.77;;;24.50;52.40;;;;;;7383837;19;20360;-47
2022/08/06 07:32:53;;;;;;;2.70;1.60;;;24.70;52.10;;;;;;7382830;19;20400;-47
2022/08/06 07:35:27;;;;;;;2.10;1.90;;;24.80;51.80;;;;;;7381023;19;20448;-46
2022/08/06 07:37:59;;;;;;;2.53;2.33;;;24.90;52.50;;;;;;7385619;19;20798;-47
2022/08/06 07:40:31;;;;;;;2.83;2.13;;;25.00;52.20;;;;;;7384292;19;20937;-46
2022/08/06 07:43:04;;;;;;;2.83;2.33;;;24.90;51.60;;;;;;7386086;19;20379;-47
2022/08/06 07:45:35;;;;;;;2.77;1.90;;;25.20;50.90;;;;;;7383655;19;20961;-47
2022/08/06 07:48:09;;;;;;;4.63;1.80;;;25.30;50.80;;;;;;7383292;19;20463;-47
2022/08/06 07:50:44;;;;;;;2.67;1.80;;;25.70;50.70;;;;;;7380952;19;20749;-47
2022/08/06 07:53:15;;;;;;;3.13;1.67;;;25.50;50.20;;;;;;7384182;19;20360;-47
2022/08/06 07:55:45;;;;;;;4.90;2.10;;;25.50;51.00;;;;;;7382021;19;20455;-46
2022/08/06 07:58:17;;;;;;;2.73;1.90;;;25.70;50.50;;;;;;7382557;19;20404;-47
2022/08/06 08:00:50;;;;;;;1.77;1.67;;;25.70;50.10;;;;;;7379576;19;20473;-47
2022/08/06 08:06:24;;;;;;;3.90;2.20;;;26.20;49.40;;;;;;7382786;19;20383;-47
2022/08/06 08:08:59;;;;;;;2.10;2.00;;;26.30;48.20;;;;;;7381141;19;20376;-47
2022/08/06 08:11:28;;;;;;;2.20;2.00;;;26.00;48.50;;;;;;7382444;19;20420;-47
2022/08/06 08:13:59;;;;;;;2.33;1.77;;;25.50;49.20;;;;;;7380179;19;20420;-47
2022/08/06 08:16:30;;;;;;;2.50;1.80;;;25.50;49.60;;;;;;7383846;19;20392;-47
2022/08/06 08:18:59;;;;;;;2.70;2.00;;;25.60;49.60;;;;;;7381345;19;20420;-47
2022/08/06 08:21:32;;;;;;;3.33;1.87;;;25.60;49.00;;;;;;7380699;19;21759;-46
2022/08/06 08:24:02;;;;;;;2.60;1.87;;;25.50;49.40;;;;;;7384219;19;20439;-47
2022/08/06 08:26:31;;;;;;;4.10;2.37;;;25.40;49.80;;;;;;7382459;19;20936;-47
2022/08/06 08:29:01;;;;;;;2.10;1.90;;;25.40;49.50;;;;;;7381183;19;20384;-47
2022/08/06 08:31:30;;;;;;;3.07;2.13;;;25.00;49.90;;;;;;7383607;19;20383;-47
2022/08/06 08:34:00;;;;;;;2.40;2.20;;;24.70;50.20;;;;;;7382890;19;20909;-47
2022/08/06 08:36:32;;;;;;;3.60;1.70;;;24.70;50.40;;;;;;7380474;19;20372;-47
2022/08/06 08:39:03;;;;;;;1.83;1.73;;;24.90;50.20;;;;;;7381135;19;20367;-47
2022/08/06 08:41:37;;;;;;;3.77;2.43;;;24.90;50.30;;;;;;7381231;19;21607;-47
2022/08/06 08:44:09;;;;;;;2.53;2.03;;;25.00;50.40;;;;;;7386759;19;20909;-47
2022/08/06 08:46:41;;;;;;;5.30;1.80;;;25.10;49.80;;;;;;7387514;19;20376;-48
2022/08/06 08:49:21;;;;;;;2.90;1.80;;;25.20;50.40;;;;;;7388581;19;20424;-47
2022/08/06 08:51:55;;;;;;;2.13;1.70;;;25.70;49.80;;;;;;7387783;19;20383;-47
2022/08/06 08:54:27;;;;;;;2.30;1.67;;;26.30;47.70;;;;;;7387291;19;20368;-47
2022/08/06 08:56:56;;;;;;;4.00;2.10;;;26.70;46.70;;;;;;7387312;19;20392;-48
2022/08/06 08:59:26;;;;;;;1.50;1.40;;;26.90;45.80;;;;;;7387709;19;21322;-47
2022/08/06 09:01:56;;;;;;;1.73;1.40;;;27.20;46.00;;;;;;7386451;19;20383;-47
2022/08/06 09:04:28;;;;;;;4.73;1.40;;;27.70;45.60;;;;;;7387011;19;20977;-48
2022/08/06 09:07:00;;;;;;;2.70;1.93;;;28.20;44.50;;;;;;7390022;19;20412;-48
2022/08/06 09:09:31;;;;;;;3.23;1.63;;;28.50;43.70;;;;;;7390043;19;20384;-47
2022/08/06 09:12:00;;;;;;;5.27;1.70;;;28.60;43.60;;;;;;7388922;19;20376;-47
2022/08/06 09:14:30;;;;;;;3.10;1.70;;;28.40;43.70;;;;;;7388987;19;20383;-47
2022/08/06 09:17:00;;;;;;;1.47;1.37;;;28.20;44.00;;;;;;7387637;19;20376;-48
2022/08/06 09:19:30;;;;;;;2.50;1.60;;;28.40;44.00;;;;;;7389973;19;20381;-47
2022/08/06 09:22:03;;;;;;;2.17;1.53;;;28.00;44.10;;;;;;7387907;19;20949;-47
2022/08/06 09:24:33;;;;;;;1.57;1.43;;;28.20;44.50;;;;;;7388527;19;20790;-47
2022/08/06 09:27:07;;;;;;;2.37;1.50;;;28.70;43.10;;;;;;7389499;19;20420;-48
2022/08/06 09:29:37;;;;;;;4.77;1.77;;;29.30;41.70;;;;;;7388954;19;20379;-48
2022/08/06 09:32:09;;;;;;;1.60;1.50;;;29.70;40.80;;;;;;7388480;19;20386;-48
2022/08/06 09:34:42;;;;;;;2.13;1.50;;;29.60;40.90;;;;;;7388792;19;20380;-48
2022/08/06 09:37:14;;;;;;;2.70;1.60;;;29.60;40.40;;;;;;7387518;19;20474;-48
2022/08/06 09:39:45;;;;;;;5.00;1.60;;;29.20;40.20;;;;;;7387573;19;20413;-48
2022/08/06 09:42:14;;;;;;;3.43;2.00;;;28.60;41.50;;;;;;7387802;19;20380;-48
2022/08/06 09:45:06;;;;;;;2.40;2.00;;;28.60;41.80;;;;;;7388435;19;20753;-47
2022/08/06 09:47:35;;;;;;;2.00;1.50;;;28.50;42.00;;;;;;7387772;19;20364;-47
2022/08/06 09:50:06;;;;;;;3.67;1.93;;;28.60;42.40;;;;;;7384677;19;20749;-48
2022/08/06 09:52:38;;;;;;;1.70;1.60;;;28.90;41.80;;;;;;7389205;19;20753;-47
2022/08/06 09:55:09;;;;;;;2.00;1.57;;;29.40;41.00;;;;;;7385022;19;20368;-47
2022/08/06 09:57:46;;;;;;;2.73;1.30;;;29.60;40.40;;;;;;7388848;19;20368;-48
2022/08/06 10:00:28;;;;;;;4.23;2.30;;;30.30;39.50;;;;;;7387152;19;20424;-48
2022/08/06 10:02:59;;;;;;;2.57;2.00;;;30.80;38.50;;;;;;7385595;19;20396;-48
2022/08/06 10:05:29;;;;;;;1.50;1.37;;;31.40;37.30;;;;;;7386719;19;20944;-47
2022/08/06 10:08:09;;;;;;;4.40;2.00;;;31.70;36.60;;;;;;7387097;19;20412;-47
2022/08/06 10:10:47;;;;;;;1.60;1.50;;;31.80;36.70;;;;;;7388024;19;20380;-48
2022/08/06 10:13:23;;;;;;;1.60;1.17;;;33.10;35.20;;;;;;7386568;19;20447;-48
2022/08/06 10:15:54;;;;;;;1.40;1.30;;;34.20;33.90;;;;;;7388188;19;20390;-48
2022/08/06 10:18:38;;;;;;;2.90;1.47;;;35.00;32.20;;;;;;7387196;19;20400;-48
2022/08/06 10:21:09;;;;;;;1.77;1.27;;;34.70;32.30;;;;;;7385907;19;20375;-49
2022/08/06 10:23:49;;;;;;;2.40;1.87;;;34.00;34.10;;;;;;7386522;19;20386;-48
2022/08/06 10:26:25;;;;;;;4.20;1.33;;;32.90;34.10;;;;;;7386621;19;20380;-48
2022/08/06 10:28:56;;;;;;;2.70;1.93;;;32.50;35.00;;;;;;7384558;19;20823;-48
2022/08/06 10:31:27;;;;;;;2.80;1.30;;;32.10;34.90;;;;;;7384834;19;20369;-48
2022/08/06 10:34:02;;;;;;;2.13;1.90;;;31.50;35.80;;;;;;7384371;19;20432;-48
2022/08/06 10:36:36;;;;;;;2.77;1.90;;;31.20;36.40;;;;;;7383777;19;20789;-48
2022/08/06 10:39:10;;;;;;;1.83;1.50;;;30.20;37.70;;;;;;7385885;19;20373;-48
2022/08/06 10:41:42;;;;;;;2.07;1.50;;;30.00;39.10;;;;;;7384588;19;20888;-48
2022/08/06 10:44:13;;;;;;;2.37;2.00;;;31.00;37.30;;;;;;7384792;19;20372;-48
2022/08/06 10:46:44;;;;;;;4.57;1.70;;;31.10;36.20;;;;;;7384912;19;20394;-48
2022/08/06 10:49:17;;;;;;;2.40;1.53;;;30.70;36.90;;;;;;7386459;19;20985;-48
2022/08/06 10:51:47;;;;;;;2.27;1.70;;;30.50;37.10;;;;;;7384446;19;20421;-48
2022/08/06 10:54:19;;;;;;;2.10;1.43;;;30.40;36.70;;;;;;7387028;19;20384;-49
2022/08/06 10:56:49;;;;;;;4.33;2.20;;;30.30;37.50;;;;;;7385595;19;20380;-48
2022/08/06 10:59:19;;;;;;;1.80;1.50;;;30.40;36.90;;;;;;7385551;19;20380;-48
2022/08/06 11:01:57;;;;;;;2.77;1.70;;;31.40;37.10;;;;;;7381820;19;20472;-48
2022/08/06 11:04:40;;;;;;;5.03;1.57;;;32.40;34.20;;;;;;7385103;19;20399;-48
2022/08/06 11:07:39;;;;;;;1.87;1.53;;;32.80;33.80;;;;;;7382648;19;20376;-48
2022/08/06 11:10:32;;;;;;;1.47;1.30;;;32.50;33.80;;;;;;7383308;19;20416;-48
2022/08/06 11:13:11;;;;;;;2.00;1.60;;;31.30;35.20;;;;;;7384549;19;20400;-48
2022/08/06 11:15:43;;;;;;;3.80;1.70;;;31.10;35.40;;;;;;7387627;19;20387;-48
2022/08/06 11:18:14;;;;;;;2.50;1.80;;;30.70;36.10;;;;;;7384995;19;20372;-48
2022/08/06 11:20:45;;;;;;;2.33;1.57;;;30.40;37.30;;;;;;7386561;19;20384;-48
2022/08/06 11:23:26;;;;;;;2.07;1.50;;;30.00;37.60;;;;;;7381514;19;20387;-49
2022/08/06 11:26:00;;;;;;;2.80;1.77;;;31.00;36.40;;;;;;7383857;19;20372;-49
2022/08/06 11:29:01;;;;;;;2.00;1.60;;;32.60;34.40;;;;;;7383789;19;20483;-49
2022/08/06 11:31:35;;;;;;;2.10;1.43;;;33.80;31.80;;;;;;7383769;19;20428;-49
2022/08/06 11:34:09;;;;;;;2.93;1.47;;;34.00;31.80;;;;;;7384360;19;20370;-49
2022/08/06 11:37:01;;;;;;;4.90;2.23;;;33.60;32.00;;;;;;7386381;19;20390;-49
2022/08/06 11:39:31;;;;;;;3.33;1.63;;;33.30;32.60;;;;;;7383403;19;20424;-48
2022/08/06 11:42:04;;;;;;;4.67;1.80;;;32.00;33.50;;;;;;7383309;19;20907;-48
2022/08/06 11:44:35;;;;;;;2.83;1.53;;;31.70;35.10;;;;;;7384978;19;20377;-49
2022/08/06 11:47:20;;;;;;;3.30;1.30;;;32.40;34.20;;;;;;7384200;19;20644;-49
2022/08/06 11:49:51;;;;;;;3.00;1.60;;;32.80;34.00;;;;;;7384858;19;20917;-49
2022/08/06 11:52:42;;;;;;;1.57;1.43;;;32.50;33.80;;;;;;7382959;19;20673;-49
2022/08/06 11:55:14;;;;;;;1.83;1.27;;;32.00;34.60;;;;;;7383632;19;20397;-49
2022/08/06 11:57:46;;;;;;;2.20;1.33;;;32.20;35.10;;;;;;7383768;19;20387;-49
2022/08/06 12:00:21;;;;;;;2.27;1.40;;;33.20;33.00;;;;;;7381524;19;20464;-49
2022/08/06 12:02:58;;;;;;;3.30;1.50;;;34.30;32.20;;;;;;7381737;19;20372;-49
2022/08/06 12:05:41;;;;;;;3.73;2.20;;;34.20;31.50;;;;;;7383062;19;20367;-49
2022/08/06 12:08:29;;;;;;;2.53;1.30;;;35.00;30.70;;;;;;7382668;19;20388;-49
2022/08/06 12:11:30;;;;;;;2.80;1.30;;;35.40;30.00;;;;;;7385454;19;20369;-49
2022/08/06 12:14:02;;;;;;;3.07;1.30;;;36.00;29.60;;;;;;7383747;19;21510;-49
2022/08/06 12:16:40;;;;;;;1.67;1.40;;;35.80;29.80;;;;;;7384678;19;20387;-48
2022/08/06 12:19:15;;;;;;;1.70;1.27;;;36.30;28.80;;;;;;7388334;19;20412;-46
2022/08/06 12:21:54;;;;;;;2.97;1.40;;;37.20;28.70;;;;;;7391277;19;20800;-47
2022/08/06 12:24:29;;;;;;;1.53;1.43;;;38.50;27.20;;;;;;7389841;19;20376;-48
2022/08/06 12:27:00;;;;;;;2.40;1.20;;;38.60;26.80;;;;;;7392456;19;20440;-48
2022/08/06 12:29:36;;;;;;;3.60;1.57;;;38.60;27.10;;;;;;7389488;19;21197;-47
2022/08/06 12:32:24;;;;;;;1.80;1.23;;;38.50;27.00;;;;;;7390303;19;20394;-47
2022/08/06 12:34:55;;;;;;;2.20;1.60;;;38.10;27.50;;;;;;7391473;19;20485;-47
2022/08/06 12:37:36;;;;;;;1.73;1.10;;;37.90;27.20;;;;;;7391120;19;20376;-47
2022/08/06 12:42:55;;;;;;;2.07;1.23;;;37.20;28.00;;;;;;7388091;19;20376;-47
2022/08/06 12:45:31;;;;;;;1.80;1.50;;;37.20;28.10;;;;;;7390327;19;20969;-50
2022/08/06 12:48:08;;;;;;;3.93;1.53;;;36.80;28.40;;;;;;7390115;19;20415;-47
2022/08/06 12:50:39;;;;;;;4.33;1.60;;;36.10;28.70;;;;;;7389503;19;20409;-47
2022/08/06 12:53:11;;;;;;;1.40;1.07;;;35.30;29.60;;;;;;7387998;19;20440;-47
2022/08/06 12:55:49;;;;;;;1.97;1.43;;;34.30;31.20;;;;;;7390456;19;20905;-47
2022/08/06 12:58:22;;;;;;;1.90;1.30;;;34.90;30.70;;;;;;7389330;19;20376;-48
2022/08/06 13:00:56;;;;;;;1.40;1.30;;;36.70;28.70;;;;;;7386133;19;20773;-48
2022/08/06 13:03:30;;;;;;;1.53;1.20;;;38.00;27.30;;;;;;7386522;19;20410;-48
2022/08/06 13:06:03;;;;;;;3.73;1.40;;;38.40;26.90;;;;;;7388936;19;20375;-48
2022/08/06 13:08:32;;;;;;;1.63;1.47;;;39.50;26.40;;;;;;7389619;19;20412;-48
2022/08/06 13:11:02;;;;;;;2.70;1.70;;;40.40;25.50;;;;;;7386861;19;20477;-48
2022/08/06 13:13:40;;;;;;;2.67;1.40;;;41.10;24.70;;;;;;7386806;19;20377;-48
2022/08/06 13:16:14;;;;;;;1.63;0.93;;;41.50;24.10;;;;;;7388624;19;21100;-48
2022/08/06 13:19:06;;;;;;;2.10;1.13;;;41.60;24.00;;;;;;7361800;19;20419;-49
2022/08/06 13:21:36;;;;;;;4.50;1.30;;;41.60;24.10;;;;;;7385749;19;20431;-49
2022/08/06 13:24:10;;;;;;;2.40;1.13;;;41.40;23.90;;;;;;7385733;19;20379;-49
2022/08/06 13:26:56;;;;;;;2.50;1.30;;;41.50;24.00;;;;;;7386929;19;20475;-48